sensor_id;sensor_type;location;lat;lon;timestamp;pressure;altitude;pressure_sealevel;temperature;humidity
8366;BME280;4220;42.502;24.188;2023-05-21T00:01:01;95099.66;;;14.07;100.00
8366;BME280;4220;42.502;24.188;2023-05-21T00:03:30;95088.00;;;13.97;100.00
8366;BME280;4220;42.502;24.188;2023-05-21T00:05:57;95096.09;;;14.02;100.00
8366;BME280;4220;42.502;24.188;2023-05-21T00:08:25;95097.38;;;14.16;100.00
8366;BME280;4220;42.502;24.188;2023-05-21T00:10:52;95088.88;;;14.19;100.00
8366;BME280;4220;42.502;24.188;2023-05-21T00:13:19;95079.84;;;14.20;100.00
8366;BME280;4220;42.502;24.188;2023-05-21T00:15:47;95084.75;;;14.28;100.00
8366;BME280;4220;42.502;24.188;2023-05-21T00:18:14;95083.31;;;14.20;100.00
8366;BME280;4220;42.502;24.188;2023-05-21T00:20:41;95080.47;;;14.10;100.00
8366;BME280;4220;42.502;24.188;2023-05-21T00:23:08;95074.50;;;14.20;100.00
8366;BME280;4220;42.502;24.188;2023-05-21T00:25:35;95062.22;;;14.02;100.00
8366;BME280;4220;42.502;24.188;2023-05-21T00:28:02;95051.63;;;13.91;100.00
8366;BME280;4220;42.502;24.188;2023-05-21T00:30:28;95058.75;;;13.68;100.00
8366;BME280;4220;42.502;24.188;2023-05-21T00:32:57;95064.09;;;13.68;100.00
8366;BME280;4220;42.502;24.188;2023-05-21T00:35:26;95060.34;;;13.69;100.00
8366;BME280;4220;42.502;24.188;2023-05-21T00:37:53;95057.78;;;13.74;100.00
8366;BME280;4220;42.502;24.188;2023-05-21T00:40:20;95046.38;;;13.62;100.00
8366;BME280;4220;42.502;24.188;2023-05-21T00:42:47;95052.06;;;13.83;100.00
8366;BME280;4220;42.502;24.188;2023-05-21T00:45:14;95056.41;;;13.89;100.00
8366;BME280;4220;42.502;24.188;2023-05-21T00:47:42;95056.97;;;13.91;100.00
8366;BME280;4220;42.502;24.188;2023-05-21T00:50:11;95041.78;;;13.91;100.00
8366;BME280;4220;42.502;24.188;2023-05-21T00:52:39;95040.00;;;13.97;100.00
8366;BME280;4220;42.502;24.188;2023-05-21T00:55:08;95039.34;;;14.06;100.00
8366;BME280;4220;42.502;24.188;2023-05-21T00:57:35;95008.50;;;13.94;100.00
8366;BME280;4220;42.502;24.188;2023-05-21T01:00:04;95042.50;;;14.20;100.00
8366;BME280;4220;42.502;24.188;2023-05-21T01:02:34;95042.88;;;14.28;100.00
8366;BME280;4220;42.502;24.188;2023-05-21T01:05:02;95040.31;;;14.33;100.00
8366;BME280;4220;42.502;24.188;2023-05-21T01:07:32;95049.22;;;14.39;100.00
8366;BME280;4220;42.502;24.188;2023-05-21T01:10:02;95030.94;;;14.31;100.00
8366;BME280;4220;42.502;24.188;2023-05-21T01:12:30;95043.28;;;14.20;100.00
8366;BME280;4220;42.502;24.188;2023-05-21T01:14:58;95047.25;;;14.18;100.00
8366;BME280;4220;42.502;24.188;2023-05-21T01:17:26;95038.69;;;14.16;100.00
8366;BME280;4220;42.502;24.188;2023-05-21T01:19:54;95039.84;;;14.20;100.00
8366;BME280;4220;42.502;24.188;2023-05-21T01:22:23;95035.13;;;14.10;100.00
8366;BME280;4220;42.502;24.188;2023-05-21T01:24:52;95033.63;;;13.98;100.00
8366;BME280;4220;42.502;24.188;2023-05-21T01:27:20;95032.09;;;14.02;100.00
8366;BME280;4220;42.502;24.188;2023-05-21T01:29:47;95028.63;;;13.85;100.00
8366;BME280;4220;42.502;24.188;2023-05-21T01:32:20;95032.81;;;13.64;100.00
8366;BME280;4220;42.502;24.188;2023-05-21T01:34:55;94989.28;;;13.42;100.00
8366;BME280;4220;42.502;24.188;2023-05-21T01:37:27;95029.66;;;13.67;100.00
8366;BME280;4220;42.502;24.188;2023-05-21T01:40:00;95032.66;;;13.70;100.00
8366;BME280;4220;42.502;24.188;2023-05-21T01:42:29;95033.78;;;13.74;100.00
8366;BME280;4220;42.502;24.188;2023-05-21T01:44:58;95029.84;;;13.60;100.00
8366;BME280;4220;42.502;24.188;2023-05-21T01:47:28;95018.19;;;13.50;100.00
8366;BME280;4220;42.502;24.188;2023-05-21T01:49:58;95018.03;;;13.56;100.00
8366;BME280;4220;42.502;24.188;2023-05-21T01:52:25;95019.00;;;13.67;100.00
8366;BME280;4220;42.502;24.188;2023-05-21T01:54:52;95025.47;;;13.71;100.00
8366;BME280;4220;42.502;24.188;2023-05-21T01:57:20;95017.41;;;13.66;100.00
8366;BME280;4220;42.502;24.188;2023-05-21T01:59:47;95017.41;;;13.83;100.00
8366;BME280;4220;42.502;24.188;2023-05-21T02:02:13;95001.81;;;13.74;100.00
8366;BME280;4220;42.502;24.188;2023-05-21T02:04:40;95013.75;;;13.89;100.00
8366;BME280;4220;42.502;24.188;2023-05-21T02:07:08;95018.69;;;13.97;100.00
8366;BME280;4220;42.502;24.188;2023-05-21T02:09:35;95019.66;;;14.07;100.00
8366;BME280;4220;42.502;24.188;2023-05-21T02:12:02;95016.53;;;14.15;100.00
8366;BME280;4220;42.502;24.188;2023-05-21T02:14:31;95014.69;;;14.16;100.00
8366;BME280;4220;42.502;24.188;2023-05-21T02:16:59;95015.41;;;14.28;100.00
8366;BME280;4220;42.502;24.188;2023-05-21T02:19:26;95018.88;;;14.28;100.00
8366;BME280;4220;42.502;24.188;2023-05-21T02:21:53;95023.44;;;14.11;100.00
8366;BME280;4220;42.502;24.188;2023-05-21T02:24:20;95016.25;;;14.12;100.00
8366;BME280;4220;42.502;24.188;2023-05-21T02:26:49;95007.69;;;14.10;100.00
8366;BME280;4220;42.502;24.188;2023-05-21T02:29:16;94973.34;;;13.97;100.00
8366;BME280;4220;42.502;24.188;2023-05-21T02:31:44;95008.72;;;14.09;100.00
8366;BME280;4220;42.502;24.188;2023-05-21T02:34:11;94991.47;;;13.95;100.00
8366;BME280;4220;42.502;24.188;2023-05-21T02:36:38;95014.97;;;13.98;100.00
8366;BME280;4220;42.502;24.188;2023-05-21T02:39:05;94999.63;;;13.71;100.00
8366;BME280;4220;42.502;24.188;2023-05-21T02:41:32;95011.50;;;13.64;100.00
8366;BME280;4220;42.502;24.188;2023-05-21T02:43:59;95007.06;;;13.69;100.00
8366;BME280;4220;42.502;24.188;2023-05-21T02:46:26;95002.38;;;13.76;100.00
8366;BME280;4220;42.502;24.188;2023-05-21T02:48:54;95000.34;;;13.84;100.00
8366;BME280;4220;42.502;24.188;2023-05-21T02:51:21;95007.75;;;13.98;100.00
8366;BME280;4220;42.502;24.188;2023-05-21T02:53:48;95004.22;;;13.93;100.00
8366;BME280;4220;42.502;24.188;2023-05-21T02:56:14;95006.25;;;13.86;100.00
8366;BME280;4220;42.502;24.188;2023-05-21T02:58:41;94992.75;;;13.92;100.00
8366;BME280;4220;42.502;24.188;2023-05-21T03:01:08;94990.56;;;13.89;100.00
8366;BME280;4220;42.502;24.188;2023-05-21T03:03:35;95003.78;;;14.01;100.00
8366;BME280;4220;42.502;24.188;2023-05-21T03:06:03;95011.16;;;13.94;100.00
8366;BME280;4220;42.502;24.188;2023-05-21T03:08:30;94999.94;;;13.92;100.00
8366;BME280;4220;42.502;24.188;2023-05-21T03:10:57;94948.75;;;13.56;100.00
8366;BME280;4220;42.502;24.188;2023-05-21T03:13:24;95001.72;;;13.86;100.00
8366;BME280;4220;42.502;24.188;2023-05-21T03:15:50;95001.72;;;14.03;100.00
8366;BME280;4220;42.502;24.188;2023-05-21T03:18:20;95000.97;;;14.07;100.00
8366;BME280;4220;42.502;24.188;2023-05-21T03:20:47;95012.59;;;14.18;100.00
8366;BME280;4220;42.502;24.188;2023-05-21T03:23:15;95013.81;;;14.27;100.00
8366;BME280;4220;42.502;24.188;2023-05-21T03:25:42;95011.78;;;14.34;100.00
8366;BME280;4220;42.502;24.188;2023-05-21T03:28:10;95021.47;;;14.40;100.00
8366;BME280;4220;42.502;24.188;2023-05-21T03:30:37;95017.50;;;14.43;100.00
8366;BME280;4220;42.502;24.188;2023-05-21T03:33:03;95014.75;;;14.21;100.00
8366;BME280;4220;42.502;24.188;2023-05-21T03:35:31;95009.78;;;14.08;100.00
8366;BME280;4220;42.502;24.188;2023-05-21T03:37:57;95015.50;;;14.16;100.00
8366;BME280;4220;42.502;24.188;2023-05-21T03:40:25;95005.91;;;13.99;100.00
8366;BME280;4220;42.502;24.188;2023-05-21T03:42:52;95012.53;;;13.96;100.00
8366;BME280;4220;42.502;24.188;2023-05-21T03:45:19;95018.56;;;14.08;100.00
8366;BME280;4220;42.502;24.188;2023-05-21T03:47:46;95016.53;;;14.15;100.00
8366;BME280;4220;42.502;24.188;2023-05-21T03:50:13;95014.84;;;14.26;100.00
8366;BME280;4220;42.502;24.188;2023-05-21T03:52:41;94996.56;;;14.18;100.00
8366;BME280;4220;42.502;24.188;2023-05-21T03:55:08;95017.41;;;14.37;100.00
8366;BME280;4220;42.502;24.188;2023-05-21T03:57:36;95014.41;;;14.51;100.00
8366;BME280;4220;42.502;24.188;2023-05-21T04:00:04;95019.06;;;14.60;100.00
8366;BME280;4220;42.502;24.188;2023-05-21T04:02:33;94968.84;;;14.35;100.00
8366;BME280;4220;42.502;24.188;2023-05-21T04:05:00;95016.16;;;14.62;100.00
8366;BME280;4220;42.502;24.188;2023-05-21T04:07:27;95007.44;;;14.50;100.00
8366;BME280;4220;42.502;24.188;2023-05-21T04:09:54;95007.63;;;14.43;100.00
8366;BME280;4220;42.502;24.188;2023-05-21T04:12:21;95012.28;;;14.31;100.00
8366;BME280;4220;42.502;24.188;2023-05-21T04:14:49;95002.78;;;14.40;100.00
8366;BME280;4220;42.502;24.188;2023-05-21T04:17:16;95002.25;;;14.21;100.00
8366;BME280;4220;42.502;24.188;2023-05-21T04:19:45;94997.09;;;14.15;100.00
8366;BME280;4220;42.502;24.188;2023-05-21T04:22:12;95010.16;;;14.33;100.00
8366;BME280;4220;42.502;24.188;2023-05-21T04:24:38;95012.41;;;14.41;100.00
8366;BME280;4220;42.502;24.188;2023-05-21T04:27:05;95008.38;;;14.60;100.00
8366;BME280;4220;42.502;24.188;2023-05-21T04:29:34;95015.59;;;14.81;100.00
8366;BME280;4220;42.502;24.188;2023-05-21T04:32:03;94976.06;;;14.78;100.00
8366;BME280;4220;42.502;24.188;2023-05-21T04:34:30;95012.66;;;15.04;100.00
8366;BME280;4220;42.502;24.188;2023-05-21T04:36:58;94972.88;;;14.81;100.00
8366;BME280;4220;42.502;24.188;2023-05-21T04:39:25;95010.75;;;15.27;100.00
8366;BME280;4220;42.502;24.188;2023-05-21T04:41:53;95012.53;;;15.43;100.00
8366;BME280;4220;42.502;24.188;2023-05-21T04:44:21;95018.38;;;15.66;100.00
8366;BME280;4220;42.502;24.188;2023-05-21T04:46:47;95011.88;;;15.89;100.00
8366;BME280;4220;42.502;24.188;2023-05-21T04:49:16;95014.72;;;16.14;100.00
8366;BME280;4220;42.502;24.188;2023-05-21T04:51:43;95020.72;;;16.31;100.00
8366;BME280;4220;42.502;24.188;2023-05-21T04:54:09;95006.06;;;16.39;100.00
8366;BME280;4220;42.502;24.188;2023-05-21T04:56:36;95008.09;;;16.64;100.00
8366;BME280;4220;42.502;24.188;2023-05-21T04:59:03;95009.69;;;16.60;100.00
8366;BME280;4220;42.502;24.188;2023-05-21T05:01:31;95013.28;;;16.80;100.00
8366;BME280;4220;42.502;24.188;2023-05-21T05:03:59;95013.63;;;17.04;100.00
8366;BME280;4220;42.502;24.188;2023-05-21T05:06:27;95010.19;;;17.19;100.00
8366;BME280;4220;42.502;24.188;2023-05-21T05:08:54;95012.09;;;17.33;100.00
8366;BME280;4220;42.502;24.188;2023-05-21T05:11:21;95011.03;;;17.29;100.00
8366;BME280;4220;42.502;24.188;2023-05-21T05:13:48;95014.22;;;17.31;100.00
8366;BME280;4220;42.502;24.188;2023-05-21T05:16:15;94991.69;;;17.27;100.00
8366;BME280;4220;42.502;24.188;2023-05-21T05:18:42;95012.72;;;17.60;100.00
8366;BME280;4220;42.502;24.188;2023-05-21T05:21:09;95020.75;;;17.71;100.00
8366;BME280;4220;42.502;24.188;2023-05-21T05:23:37;95017.00;;;17.82;100.00
8366;BME280;4220;42.502;24.188;2023-05-21T05:26:04;95012.16;;;17.94;100.00
8366;BME280;4220;42.502;24.188;2023-05-21T05:28:31;95015.13;;;18.02;100.00
8366;BME280;4220;42.502;24.188;2023-05-21T05:30:58;95018.09;;;18.01;100.00
8366;BME280;4220;42.502;24.188;2023-05-21T05:33:24;95012.69;;;18.11;100.00
8366;BME280;4220;42.502;24.188;2023-05-21T05:35:51;95011.09;;;18.20;100.00
8366;BME280;4220;42.502;24.188;2023-05-21T05:38:18;95005.44;;;18.26;100.00
8366;BME280;4220;42.502;24.188;2023-05-21T05:40:46;95017.00;;;18.17;100.00
8366;BME280;4220;42.502;24.188;2023-05-21T05:43:13;95012.69;;;18.21;100.00
8366;BME280;4220;42.502;24.188;2023-05-21T05:45:40;95014.31;;;18.32;100.00
8366;BME280;4220;42.502;24.188;2023-05-21T05:48:07;95021.03;;;18.50;100.00
8366;BME280;4220;42.502;24.188;2023-05-21T05:50:33;95021.53;;;18.57;100.00
8366;BME280;4220;42.502;24.188;2023-05-21T05:53:00;95013.19;;;18.58;100.00
8366;BME280;4220;42.502;24.188;2023-05-21T05:55:27;95015.31;;;18.76;100.00
8366;BME280;4220;42.502;24.188;2023-05-21T05:57:55;95018.22;;;18.80;100.00
8366;BME280;4220;42.502;24.188;2023-05-21T06:00:22;95021.72;;;18.80;100.00
8366;BME280;4220;42.502;24.188;2023-05-21T06:02:49;95020.88;;;18.90;99.99
8366;BME280;4220;42.502;24.188;2023-05-21T06:05:16;95024.63;;;19.04;96.00
8366;BME280;4220;42.502;24.188;2023-05-21T06:07:42;95030.22;;;19.08;91.31
8366;BME280;4220;42.502;24.188;2023-05-21T06:10:09;95037.72;;;19.21;90.72
8366;BME280;4220;42.502;24.188;2023-05-21T06:12:36;95034.72;;;19.27;89.69
8366;BME280;4220;42.502;24.188;2023-05-21T06:15:05;95028.25;;;19.28;88.12
8366;BME280;4220;42.502;24.188;2023-05-21T06:17:33;95033.31;;;19.45;87.09
8366;BME280;4220;42.502;24.188;2023-05-21T06:19:59;95028.97;;;19.49;85.33
8366;BME280;4220;42.502;24.188;2023-05-21T06:22:26;95024.69;;;19.48;82.39
8366;BME280;4220;42.502;24.188;2023-05-21T06:24:53;95033.78;;;19.57;81.41
8366;BME280;4220;42.502;24.188;2023-05-21T06:27:20;95030.47;;;19.70;80.12
8366;BME280;4220;42.502;24.188;2023-05-21T06:29:47;95037.16;;;19.78;78.70
8366;BME280;4220;42.502;24.188;2023-05-21T06:32:15;95043.16;;;19.98;79.01
8366;BME280;4220;42.502;24.188;2023-05-21T06:34:42;95045.22;;;20.11;75.29
8366;BME280;4220;42.502;24.188;2023-05-21T06:37:08;95047.41;;;20.09;72.59
8366;BME280;4220;42.502;24.188;2023-05-21T06:39:35;95047.66;;;20.08;73.65
8366;BME280;4220;42.502;24.188;2023-05-21T06:42:02;95048.94;;;20.15;74.36
8366;BME280;4220;42.502;24.188;2023-05-21T06:44:29;95054.63;;;20.14;74.04
8366;BME280;4220;42.502;24.188;2023-05-21T06:46:56;95053.22;;;20.21;75.21
8366;BME280;4220;42.502;24.188;2023-05-21T06:49:24;95051.34;;;20.22;75.05
8366;BME280;4220;42.502;24.188;2023-05-21T06:51:51;95052.75;;;20.14;75.34
8366;BME280;4220;42.502;24.188;2023-05-21T06:54:17;95052.88;;;19.99;75.67
8366;BME280;4220;42.502;24.188;2023-05-21T06:56:44;95054.50;;;19.95;76.22
8366;BME280;4220;42.502;24.188;2023-05-21T06:59:11;95057.41;;;20.04;75.95
8366;BME280;4220;42.502;24.188;2023-05-21T07:01:38;95064.63;;;20.08;75.88
8366;BME280;4220;42.502;24.188;2023-05-21T07:04:06;95025.56;;;19.77;75.40
8366;BME280;4220;42.502;24.188;2023-05-21T07:06:35;95069.22;;;20.08;75.95
8366;BME280;4220;42.502;24.188;2023-05-21T07:09:02;95057.38;;;20.09;76.13
8366;BME280;4220;42.502;24.188;2023-05-21T07:11:29;95069.97;;;20.13;76.50
8366;BME280;4220;42.502;24.188;2023-05-21T07:13:57;95076.44;;;20.12;78.84
8366;BME280;4220;42.502;24.188;2023-05-21T07:16:24;95072.66;;;20.13;79.74
8366;BME280;4220;42.502;24.188;2023-05-21T07:18:51;95069.47;;;20.11;82.08
8366;BME280;4220;42.502;24.188;2023-05-21T07:21:18;95079.28;;;19.97;82.84
8366;BME280;4220;42.502;24.188;2023-05-21T07:23:46;95083.84;;;19.97;83.18
8366;BME280;4220;42.502;24.188;2023-05-21T07:26:13;95081.66;;;19.99;83.49
8366;BME280;4220;42.502;24.188;2023-05-21T07:28:40;95094.88;;;19.95;84.01
8366;BME280;4220;42.502;24.188;2023-05-21T07:31:07;95068.84;;;19.81;84.75
8366;BME280;4220;42.502;24.188;2023-05-21T07:33:35;95083.03;;;19.96;85.31
8366;BME280;4220;42.502;24.188;2023-05-21T07:36:02;95084.72;;;19.87;87.78
8366;BME280;4220;42.502;24.188;2023-05-21T07:38:29;95095.47;;;19.87;87.97
8366;BME280;4220;42.502;24.188;2023-05-21T07:40:57;95089.66;;;19.70;89.09
8366;BME280;4220;42.502;24.188;2023-05-21T07:43:24;95085.38;;;19.64;90.43
8366;BME280;4220;42.502;24.188;2023-05-21T07:45:51;95088.34;;;19.63;90.56
8366;BME280;4220;42.502;24.188;2023-05-21T07:48:18;95096.13;;;19.64;92.14
8366;BME280;4220;42.502;24.188;2023-05-21T07:50:45;95085.97;;;19.51;92.21
8366;BME280;4220;42.502;24.188;2023-05-21T07:53:14;95083.88;;;19.43;91.04
8366;BME280;4220;42.502;24.188;2023-05-21T07:55:41;95079.06;;;19.30;92.86
8366;BME280;4220;42.502;24.188;2023-05-21T07:58:14;95074.66;;;18.85;93.80
8366;BME280;4220;42.502;24.188;2023-05-21T08:00:42;95065.03;;;18.64;95.29
8366;BME280;4220;42.502;24.188;2023-05-21T08:03:12;95070.16;;;18.50;95.42
8366;BME280;4220;42.502;24.188;2023-05-21T08:05:40;95075.25;;;18.32;93.55
8366;BME280;4220;42.502;24.188;2023-05-21T08:08:09;95031.47;;;18.31;92.71
8366;BME280;4220;42.502;24.188;2023-05-21T08:10:36;95066.09;;;18.58;93.35
8366;BME280;4220;42.502;24.188;2023-05-21T08:13:03;95062.38;;;18.49;94.25
8366;BME280;4220;42.502;24.188;2023-05-21T08:15:31;95064.22;;;18.43;91.28
8366;BME280;4220;42.502;24.188;2023-05-21T08:17:58;95058.34;;;18.46;90.31
8366;BME280;4220;42.502;24.188;2023-05-21T08:20:24;95056.97;;;18.59;84.26
8366;BME280;4220;42.502;24.188;2023-05-21T08:22:51;95061.22;;;18.80;83.79
8366;BME280;4220;42.502;24.188;2023-05-21T08:25:19;95048.03;;;18.93;79.72
8366;BME280;4220;42.502;24.188;2023-05-21T08:27:46;95041.81;;;19.03;78.54
8366;BME280;4220;42.502;24.188;2023-05-21T08:30:12;95071.25;;;19.43;78.19
8366;BME280;4220;42.502;24.188;2023-05-21T08:32:41;95077.81;;;19.66;76.68
8366;BME280;4220;42.502;24.188;2023-05-21T08:35:08;95061.03;;;19.84;75.67
8366;BME280;4220;42.502;24.188;2023-05-21T08:37:35;95064.00;;;20.21;74.01
8366;BME280;4220;42.502;24.188;2023-05-21T08:40:03;95081.66;;;20.38;72.01
8366;BME280;4220;42.502;24.188;2023-05-21T08:42:39;95086.84;;;20.86;71.38
8366;BME280;4220;42.502;24.188;2023-05-21T08:45:10;95077.16;;;21.14;70.69
8366;BME280;4220;42.502;24.188;2023-05-21T08:47:41;95062.56;;;21.39;70.32
8366;BME280;4220;42.502;24.188;2023-05-21T08:50:10;95067.56;;;21.69;69.34
8366;BME280;4220;42.502;24.188;2023-05-21T08:52:37;95076.63;;;21.97;69.06
8366;BME280;4220;42.502;24.188;2023-05-21T08:55:05;95069.69;;;22.28;68.39
8366;BME280;4220;42.502;24.188;2023-05-21T08:57:32;95072.63;;;22.45;67.06
8366;BME280;4220;42.502;24.188;2023-05-21T09:00:00;95073.25;;;22.56;66.27
8366;BME280;4220;42.502;24.188;2023-05-21T09:02:32;95068.84;;;22.78;66.09
8366;BME280;4220;42.502;24.188;2023-05-21T09:05:01;95074.66;;;22.86;63.75
8366;BME280;4220;42.502;24.188;2023-05-21T09:07:30;95073.66;;;22.82;63.05
8366;BME280;4220;42.502;24.188;2023-05-21T09:10:03;95062.25;;;22.98;63.04
8366;BME280;4220;42.502;24.188;2023-05-21T09:12:30;95079.28;;;23.12;62.52
8366;BME280;4220;42.502;24.188;2023-05-21T09:14:58;95053.13;;;23.08;62.03
8366;BME280;4220;42.502;24.188;2023-05-21T09:17:26;95057.16;;;23.24;60.90
8366;BME280;4220;42.502;24.188;2023-05-21T09:20:09;95053.97;;;23.22;59.99
8366;BME280;4220;42.502;24.188;2023-05-21T09:22:39;95049.53;;;23.39;60.31
8366;BME280;4220;42.502;24.188;2023-05-21T09:25:08;95035.09;;;23.58;59.79
8366;BME280;4220;42.502;24.188;2023-05-21T09:27:36;95067.59;;;23.93;59.70
8366;BME280;4220;42.502;24.188;2023-05-21T09:30:04;95055.00;;;23.75;61.10
8366;BME280;4220;42.502;24.188;2023-05-21T09:32:34;95063.94;;;23.76;60.89
8366;BME280;4220;42.502;24.188;2023-05-21T09:35:10;95054.41;;;23.78;61.40
8366;BME280;4220;42.502;24.188;2023-05-21T09:37:37;95052.16;;;23.58;62.75
8366;BME280;4220;42.502;24.188;2023-05-21T09:40:09;95063.44;;;23.74;60.64
8366;BME280;4220;42.502;24.188;2023-05-21T09:42:38;95034.28;;;23.57;59.96
8366;BME280;4220;42.502;24.188;2023-05-21T09:45:06;95060.69;;;23.87;60.33
8366;BME280;4220;42.502;24.188;2023-05-21T09:47:33;95055.41;;;23.82;59.91
8366;BME280;4220;42.502;24.188;2023-05-21T09:50:00;95049.94;;;23.96;60.20
8366;BME280;4220;42.502;24.188;2023-05-21T09:52:28;95059.47;;;24.07;59.62
8366;BME280;4220;42.502;24.188;2023-05-21T09:54:55;95047.19;;;23.74;60.00
8366;BME280;4220;42.502;24.188;2023-05-21T09:57:23;95051.53;;;23.34;61.13
8366;BME280;4220;42.502;24.188;2023-05-21T09:59:50;95041.25;;;23.36;60.65
8366;BME280;4220;42.502;24.188;2023-05-21T10:02:19;95044.22;;;23.48;58.35
8366;BME280;4220;42.502;24.188;2023-05-21T10:04:48;95049.31;;;23.63;58.72
8366;BME280;4220;42.502;24.188;2023-05-21T10:07:17;95039.00;;;23.65;59.01
8366;BME280;4220;42.502;24.188;2023-05-21T10:09:46;95044.28;;;24.06;58.16
8366;BME280;4220;42.502;24.188;2023-05-21T10:12:15;95043.69;;;24.53;58.47
8366;BME280;4220;42.502;24.188;2023-05-21T10:14:45;95042.38;;;24.73;54.02
8366;BME280;4220;42.502;24.188;2023-05-21T10:17:16;95020.72;;;24.82;53.01
8366;BME280;4220;42.502;24.188;2023-05-21T10:19:47;95055.31;;;24.98;53.26
8366;BME280;4220;42.502;24.188;2023-05-21T10:22:15;95043.47;;;24.94;55.00
8366;BME280;4220;42.502;24.188;2023-05-21T10:24:42;95052.81;;;25.10;51.41
8366;BME280;4220;42.502;24.188;2023-05-21T10:27:12;95037.06;;;24.90;48.55
8366;BME280;4220;42.502;24.188;2023-05-21T10:29:40;95009.75;;;24.64;48.12
8366;BME280;4220;42.502;24.188;2023-05-21T10:32:11;95046.28;;;24.58;49.46
8366;BME280;4220;42.502;24.188;2023-05-21T10:34:38;95022.59;;;24.20;49.94
8366;BME280;4220;42.502;24.188;2023-05-21T10:37:07;94997.59;;;23.87;50.71
8366;BME280;4220;42.502;24.188;2023-05-21T10:39:35;95040.88;;;23.78;52.17
8366;BME280;4220;42.502;24.188;2023-05-21T10:42:13;95032.16;;;23.68;52.64
8366;BME280;4220;42.502;24.188;2023-05-21T10:44:51;95026.53;;;23.64;53.11
8366;BME280;4220;42.502;24.188;2023-05-21T10:47:43;95031.72;;;23.74;53.54
8366;BME280;4220;42.502;24.188;2023-05-21T10:50:39;95022.19;;;23.90;54.68
8366;BME280;4220;42.502;24.188;2023-05-21T10:53:15;95021.09;;;24.36;53.36
8366;BME280;4220;42.502;24.188;2023-05-21T10:55:55;95024.97;;;24.96;50.90
8366;BME280;4220;42.502;24.188;2023-05-21T10:58:47;95035.13;;;25.69;51.60
8366;BME280;4220;42.502;24.188;2023-05-21T11:01:17;95006.41;;;26.11;50.71
8366;BME280;4220;42.502;24.188;2023-05-21T11:03:45;95032.25;;;26.09;51.57
8366;BME280;4220;42.502;24.188;2023-05-21T11:06:21;95010.34;;;25.14;53.19
8366;BME280;4220;42.502;24.188;2023-05-21T11:08:49;95019.69;;;24.91;53.77
8366;BME280;4220;42.502;24.188;2023-05-21T11:11:38;95011.44;;;24.74;55.52
8366;BME280;4220;42.502;24.188;2023-05-21T11:14:30;95029.44;;;24.70;56.06
8366;BME280;4220;42.502;24.188;2023-05-21T11:16:59;95034.28;;;24.51;56.83
8366;BME280;4220;42.502;24.188;2023-05-21T11:19:39;95033.75;;;24.04;56.59
8366;BME280;4220;42.502;24.188;2023-05-21T11:22:20;95023.00;;;23.77;57.26
8366;BME280;4220;42.502;24.188;2023-05-21T11:24:47;95015.88;;;23.81;57.05
8366;BME280;4220;42.502;24.188;2023-05-21T11:27:30;95029.16;;;24.05;56.28
8366;BME280;4220;42.502;24.188;2023-05-21T11:30:02;95025.53;;;24.10;56.62
8366;BME280;4220;42.502;24.188;2023-05-21T11:32:29;95015.91;;;24.26;56.77
8366;BME280;4220;42.502;24.188;2023-05-21T11:34:59;95014.31;;;24.47;56.19
8366;BME280;4220;42.502;24.188;2023-05-21T11:37:28;95023.09;;;25.05;54.54
8366;BME280;4220;42.502;24.188;2023-05-21T11:39:57;95021.19;;;25.54;53.39
8366;BME280;4220;42.502;24.188;2023-05-21T11:42:28;94991.53;;;25.18;53.85
8366;BME280;4220;42.502;24.188;2023-05-21T11:44:56;94942.09;;;24.51;53.73
8366;BME280;4220;42.502;24.188;2023-05-21T11:47:26;95025.38;;;24.81;54.32
8366;BME280;4220;42.502;24.188;2023-05-21T11:49:54;94999.28;;;24.19;54.59
8366;BME280;4220;42.502;24.188;2023-05-21T11:52:22;95005.97;;;23.99;56.35
8366;BME280;4220;42.502;24.188;2023-05-21T11:54:51;95010.78;;;23.66;56.88
8366;BME280;4220;42.502;24.188;2023-05-21T11:57:20;95019.59;;;23.36;57.71
8366;BME280;4220;42.502;24.188;2023-05-21T11:59:48;95018.28;;;23.06;59.02
8366;BME280;4220;42.502;24.188;2023-05-21T12:02:18;95005.75;;;22.69;59.42
8366;BME280;4220;42.502;24.188;2023-05-21T12:04:47;94996.97;;;22.45;59.92
8366;BME280;4220;42.502;24.188;2023-05-21T12:07:16;94998.56;;;22.46;60.67
8366;BME280;4220;42.502;24.188;2023-05-21T12:09:45;95008.78;;;22.49;59.87
8366;BME280;4220;42.502;24.188;2023-05-21T12:12:13;95008.38;;;22.56;60.68
8366;BME280;4220;42.502;24.188;2023-05-21T12:14:43;95007.59;;;22.55;60.96
8366;BME280;4220;42.502;24.188;2023-05-21T12:17:10;95006.06;;;22.36;60.97
8366;BME280;4220;42.502;24.188;2023-05-21T12:19:38;95007.06;;;22.40;60.44
8366;BME280;4220;42.502;24.188;2023-05-21T12:22:07;95001.34;;;22.41;60.40
8366;BME280;4220;42.502;24.188;2023-05-21T12:24:35;95002.97;;;22.42;59.59
8366;BME280;4220;42.502;24.188;2023-05-21T12:27:03;95005.56;;;22.47;59.75
8366;BME280;4220;42.502;24.188;2023-05-21T12:29:35;94996.25;;;22.53;59.47
8366;BME280;4220;42.502;24.188;2023-05-21T12:32:04;95006.53;;;22.70;58.98
8366;BME280;4220;42.502;24.188;2023-05-21T12:34:36;95014.16;;;22.82;58.52
8366;BME280;4220;42.502;24.188;2023-05-21T12:37:03;95006.03;;;22.82;58.82
8366;BME280;4220;42.502;24.188;2023-05-21T12:39:32;95000.72;;;22.90;58.29
8366;BME280;4220;42.502;24.188;2023-05-21T12:42:01;95001.03;;;22.89;58.79
8366;BME280;4220;42.502;24.188;2023-05-21T12:44:30;94989.59;;;23.05;58.28
8366;BME280;4220;42.502;24.188;2023-05-21T12:46:57;94992.41;;;23.41;57.65
8366;BME280;4220;42.502;24.188;2023-05-21T12:49:33;94992.41;;;23.77;56.71
8366;BME280;4220;42.502;24.188;2023-05-21T12:52:02;94998.16;;;23.75;56.75
8366;BME280;4220;42.502;24.188;2023-05-21T12:54:36;94991.88;;;23.53;56.90
8366;BME280;4220;42.502;24.188;2023-05-21T12:57:07;94986.69;;;23.56;57.64
8366;BME280;4220;42.502;24.188;2023-05-21T12:59:46;94949.31;;;23.17;58.26
8366;BME280;4220;42.502;24.188;2023-05-21T13:02:14;94981.56;;;23.27;59.04
8366;BME280;4220;42.502;24.188;2023-05-21T13:04:42;94980.47;;;23.15;59.23
8366;BME280;4220;42.502;24.188;2023-05-21T13:07:09;94982.31;;;23.06;59.11
8366;BME280;4220;42.502;24.188;2023-05-21T13:09:37;94991.09;;;22.98;58.43
8366;BME280;4220;42.502;24.188;2023-05-21T13:12:04;94975.41;;;22.86;58.82